sensor_id;sensor_type;location;lat;lon;timestamp;pressure;altitude;pressure_sealevel;temperature;humidity
84724;BME280;74944;52.322;16.918;2024-03-25T00:00:47;99208.63;;;5.66;96.77
84724;BME280;74944;52.322;16.918;2024-03-25T00:03:32;99200.19;;;5.68;96.37
84724;BME280;74944;52.322;16.918;2024-03-25T00:05:58;99202.28;;;5.71;96.42
84724;BME280;74944;52.322;16.918;2024-03-25T00:08:23;99199.06;;;5.69;96.49
84724;BME280;74944;52.322;16.918;2024-03-25T00:10:52;99195.78;;;5.72;96.42
84724;BME280;74944;52.322;16.918;2024-03-25T00:13:17;99199.00;;;5.74;96.42
84724;BME280;74944;52.322;16.918;2024-03-25T00:15:45;99198.38;;;5.77;96.39
84724;BME280;74944;52.322;16.918;2024-03-25T00:18:11;99194.06;;;5.76;96.27
84724;BME280;74944;52.322;16.918;2024-03-25T00:20:37;99197.59;;;5.76;96.20
84724;BME280;74944;52.322;16.918;2024-03-25T00:23:02;99192.94;;;5.77;96.20
84724;BME280;74944;52.322;16.918;2024-03-25T00:25:28;99195.56;;;5.82;95.53
84724;BME280;74944;52.322;16.918;2024-03-25T00:27:54;99196.19;;;5.79;95.88
84724;BME280;74944;52.322;16.918;2024-03-25T00:30:20;99186.38;;;5.78;95.45
84724;BME280;74944;52.322;16.918;2024-03-25T00:32:45;99186.38;;;5.78;95.88
84724;BME280;74944;52.322;16.918;2024-03-25T00:35:11;99188.50;;;5.81;95.74
84724;BME280;74944;52.322;16.918;2024-03-25T00:37:37;99182.56;;;5.79;95.70
84724;BME280;74944;52.322;16.918;2024-03-25T00:40:03;99184.66;;;5.82;95.86
84724;BME280;74944;52.322;16.918;2024-03-25T00:42:30;99186.28;;;5.83;96.09
84724;BME280;74944;52.322;16.918;2024-03-25T00:44:55;99184.06;;;5.85;95.81
84724;BME280;74944;52.322;16.918;2024-03-25T00:47:21;99178.63;;;5.85;96.03
84724;BME280;74944;52.322;16.918;2024-03-25T00:49:47;99182.44;;;5.84;95.91
84724;BME280;74944;52.322;16.918;2024-03-25T00:52:13;99176.69;;;5.85;95.66
84724;BME280;74944;52.322;16.918;2024-03-25T00:54:38;99179.63;;;5.89;96.20
84724;BME280;74944;52.322;16.918;2024-03-25T00:57:04;99178.00;;;5.88;96.21
84724;BME280;74944;52.322;16.918;2024-03-25T00:59:30;99174.91;;;5.94;95.02
84724;BME280;74944;52.322;16.918;2024-03-25T01:01:55;99171.34;;;5.94;94.88
84724;BME280;74944;52.322;16.918;2024-03-25T01:04:21;99175.72;;;5.95;95.44
84724;BME280;74944;52.322;16.918;2024-03-25T01:06:48;99169.13;;;5.96;95.81
84724;BME280;74944;52.322;16.918;2024-03-25T01:09:14;99166.41;;;5.96;95.39
84724;BME280;74944;52.322;16.918;2024-03-25T01:11:40;99164.19;;;5.98;95.46
84724;BME280;74944;52.322;16.918;2024-03-25T01:14:06;99169.13;;;5.96;95.25
84724;BME280;74944;52.322;16.918;2024-03-25T01:16:32;99160.66;;;5.97;95.26
84724;BME280;74944;52.322;16.918;2024-03-25T01:18:58;99166.13;;;5.97;94.99
84724;BME280;74944;52.322;16.918;2024-03-25T01:21:24;99157.66;;;5.99;95.38
84724;BME280;74944;52.322;16.918;2024-03-25T01:23:50;99158.44;;;5.99;95.13
84724;BME280;74944;52.322;16.918;2024-03-25T01:26:17;99154.81;;;6.03;95.40
84724;BME280;74944;52.322;16.918;2024-03-25T01:28:43;99157.81;;;6.02;94.84
84724;BME280;74944;52.322;16.918;2024-03-25T01:31:09;99159.97;;;6.05;94.66
84724;BME280;74944;52.322;16.918;2024-03-25T01:33:35;99156.94;;;6.06;95.26
84724;BME280;74944;52.322;16.918;2024-03-25T01:36:00;99152.59;;;6.05;95.19
84724;BME280;74944;52.322;16.918;2024-03-25T01:38:26;99152.59;;;6.05;95.15
84724;BME280;74944;52.322;16.918;2024-03-25T01:40:52;99152.00;;;6.08;95.29
84724;BME280;74944;52.322;16.918;2024-03-25T01:43:20;99153.38;;;6.06;95.46
84724;BME280;74944;52.322;16.918;2024-03-25T01:45:46;99153.00;;;6.12;95.17
84724;BME280;74944;52.322;16.918;2024-03-25T01:48:12;99153.78;;;6.13;94.86
84724;BME280;74944;52.322;16.918;2024-03-25T01:50:43;99161.66;;;6.14;95.46
84724;BME280;74944;52.322;16.918;2024-03-25T01:53:12;99162.16;;;6.16;95.04
84724;BME280;74944;52.322;16.918;2024-03-25T01:55:38;99157.81;;;6.15;94.88
84724;BME280;74944;52.322;16.918;2024-03-25T01:58:05;99153.16;;;6.16;94.79
84724;BME280;74944;52.322;16.918;2024-03-25T02:00:32;99153.38;;;6.19;95.51
84724;BME280;74944;52.322;16.918;2024-03-25T02:02:58;99162.84;;;6.22;94.98
84724;BME280;74944;52.322;16.918;2024-03-25T02:05:24;99155.97;;;6.24;95.24
84724;BME280;74944;52.322;16.918;2024-03-25T02:07:50;99158.53;;;6.21;95.19
84724;BME280;74944;52.322;16.918;2024-03-25T02:10:17;99152.06;;;6.17;95.51
84724;BME280;74944;52.322;16.918;2024-03-25T02:12:45;99155.59;;;6.17;95.82
84724;BME280;74944;52.322;16.918;2024-03-25T02:15:12;99159.13;;;6.18;95.67
84724;BME280;74944;52.322;16.918;2024-03-25T02:17:41;99158.44;;;6.12;95.74
84724;BME280;74944;52.322;16.918;2024-03-25T02:20:07;99157.13;;;6.10;96.26
84724;BME280;74944;52.322;16.918;2024-03-25T02:22:34;99161.34;;;6.16;96.24
84724;BME280;74944;52.322;16.918;2024-03-25T02:25:07;99162.28;;;6.11;96.59
84724;BME280;74944;52.322;16.918;2024-03-25T02:27:37;99162.38;;;6.06;96.11
84724;BME280;74944;52.322;16.918;2024-03-25T02:30:08;99161.06;;;6.04;95.80
84724;BME280;74944;52.322;16.918;2024-03-25T02:32:35;99157.66;;;5.99;96.65
84724;BME280;74944;52.322;16.918;2024-03-25T02:35:02;99159.88;;;5.97;97.06
84724;BME280;74944;52.322;16.918;2024-03-25T02:37:29;99166.63;;;5.99;96.82
84724;BME280;74944;52.322;16.918;2024-03-25T02:39:58;99163.69;;;5.96;96.60
84724;BME280;74944;52.322;16.918;2024-03-25T02:42:25;99165.91;;;5.94;97.14
84724;BME280;74944;52.322;16.918;2024-03-25T02:44:57;99169.75;;;5.93;97.02
84724;BME280;74944;52.322;16.918;2024-03-25T02:47:24;99167.63;;;5.90;96.77
84724;BME280;74944;52.322;16.918;2024-03-25T02:49:50;99159.44;;;5.90;96.95
84724;BME280;74944;52.322;16.918;2024-03-25T02:52:16;99162.28;;;5.85;97.29
84724;BME280;74944;52.322;16.918;2024-03-25T02:54:41;99177.00;;;5.84;97.46
84724;BME280;74944;52.322;16.918;2024-03-25T02:57:07;99172.16;;;5.81;97.21
84724;BME280;74944;52.322;16.918;2024-03-25T02:59:32;99169.22;;;5.77;97.49
84724;BME280;74944;52.322;16.918;2024-03-25T03:01:58;99178.72;;;5.80;97.73
84724;BME280;74944;52.322;16.918;2024-03-25T03:04:24;99179.63;;;5.75;97.51
84724;BME280;74944;52.322;16.918;2024-03-25T03:06:50;99179.94;;;5.74;97.95
84724;BME280;74944;52.322;16.918;2024-03-25T03:09:15;99178.56;;;5.71;97.98
84724;BME280;74944;52.322;16.918;2024-03-25T03:11:41;99181.13;;;5.68;98.65
84724;BME280;74944;52.322;16.918;2024-03-25T03:14:07;99180.28;;;5.67;98.12
84724;BME280;74944;52.322;16.918;2024-03-25T03:16:32;99180.28;;;5.67;98.19
84724;BME280;74944;52.322;16.918;2024-03-25T03:18:58;99183.00;;;5.67;98.31
84724;BME280;74944;52.322;16.918;2024-03-25T03:21:24;99185.72;;;5.67;98.42
84724;BME280;74944;52.322;16.918;2024-03-25T03:23:50;99192.00;;;5.68;98.15
84724;BME280;74944;52.322;16.918;2024-03-25T03:26:15;99184.63;;;5.68;97.80
84724;BME280;74944;52.322;16.918;2024-03-25T03:28:41;99193.91;;;5.67;98.42
84724;BME280;74944;52.322;16.918;2024-03-25T03:31:07;99185.84;;;5.63;98.47
84724;BME280;74944;52.322;16.918;2024-03-25T03:33:32;99185.63;;;5.59;98.76
84724;BME280;74944;52.322;16.918;2024-03-25T03:35:58;99194.59;;;5.60;98.54
84724;BME280;74944;52.322;16.918;2024-03-25T03:38:24;99191.69;;;5.56;98.53
84724;BME280;74944;52.322;16.918;2024-03-25T03:41:01;99199.56;;;5.58;98.53
84724;BME280;74944;52.322;16.918;2024-03-25T03:43:27;99200.66;;;5.57;98.46
84724;BME280;74944;52.322;16.918;2024-03-25T03:45:52;99194.47;;;5.51;98.78
84724;BME280;74944;52.322;16.918;2024-03-25T03:48:18;99196.09;;;5.52;99.10
84724;BME280;74944;52.322;16.918;2024-03-25T03:50:44;99192.88;;;5.50;99.18
84724;BME280;74944;52.322;16.918;2024-03-25T03:53:10;99201.84;;;5.51;99.34
84724;BME280;74944;52.322;16.918;2024-03-25T03:55:36;99199.41;;;5.49;99.42
84724;BME280;74944;52.322;16.918;2024-03-25T03:58:02;99199.72;;;5.48;100.00
84724;BME280;74944;52.322;16.918;2024-03-25T04:00:28;99193.69;;;5.51;99.55
84724;BME280;74944;52.322;16.918;2024-03-25T04:02:53;99200.75;;;5.52;99.58
84724;BME280;74944;52.322;16.918;2024-03-25T04:05:19;99203.16;;;5.53;99.59
84724;BME280;74944;52.322;16.918;2024-03-25T04:07:45;99191.47;;;5.53;99.60
84724;BME280;74944;52.322;16.918;2024-03-25T04:10:11;99198.84;;;5.52;99.29
84724;BME280;74944;52.322;16.918;2024-03-25T04:12:37;99202.06;;;5.54;99.68
84724;BME280;74944;52.322;16.918;2024-03-25T04:15:03;99197.13;;;5.56;100.00
84724;BME280;74944;52.322;16.918;2024-03-25T04:17:29;99207.22;;;5.56;100.00
84724;BME280;74944;52.322;16.918;2024-03-25T04:19:55;99209.44;;;5.54;100.00
84724;BME280;74944;52.322;16.918;2024-03-25T04:22:24;99216.97;;;5.57;100.00
84724;BME280;74944;52.322;16.918;2024-03-25T04:24:49;99206.72;;;5.54;99.99
84724;BME280;74944;52.322;16.918;2024-03-25T04:27:15;99209.94;;;5.56;99.96
84724;BME280;74944;52.322;16.918;2024-03-25T04:29:41;99211.84;;;5.55;100.00
84724;BME280;74944;52.322;16.918;2024-03-25T04:32:06;99206.09;;;5.57;100.00
84724;BME280;74944;52.322;16.918;2024-03-25T04:34:34;99215.06;;;5.57;100.00
84724;BME280;74944;52.322;16.918;2024-03-25T04:36:59;99219.09;;;5.60;100.00
84724;BME280;74944;52.322;16.918;2024-03-25T04:39:25;99225.06;;;5.62;100.00
84724;BME280;74944;52.322;16.918;2024-03-25T04:41:51;99222.03;;;5.63;100.00
84724;BME280;74944;52.322;16.918;2024-03-25T04:44:16;99224.75;;;5.63;100.00
84724;BME280;74944;52.322;16.918;2024-03-25T04:46:43;99224.69;;;5.68;100.00
84724;BME280;74944;52.322;16.918;2024-03-25T04:49:10;99232.84;;;5.68;100.00
84724;BME280;74944;52.322;16.918;2024-03-25T04:51:36;99232.84;;;5.68;100.00
84724;BME280;74944;52.322;16.918;2024-03-25T04:54:02;99237.44;;;5.72;100.00
84724;BME280;74944;52.322;16.918;2024-03-25T04:56:27;99237.13;;;5.74;100.00
84724;BME280;74944;52.322;16.918;2024-03-25T04:58:53;99245.81;;;5.76;100.00
84724;BME280;74944;52.322;16.918;2024-03-25T05:01:18;99242.78;;;5.77;100.00
84724;BME280;74944;52.322;16.918;2024-03-25T05:03:44;99255.31;;;5.78;100.00
84724;BME280;74944;52.322;16.918;2024-03-25T05:06:10;99252.06;;;5.76;100.00
84724;BME280;74944;52.322;16.918;2024-03-25T05:08:37;99251.44;;;5.79;100.00
84724;BME280;74944;52.322;16.918;2024-03-25T05:11:02;99256.31;;;5.82;100.00
84724;BME280;74944;52.322;16.918;2024-03-25T05:13:28;99264.69;;;5.86;100.00
84724;BME280;74944;52.322;16.918;2024-03-25T05:15:55;99255.41;;;5.87;100.00
84724;BME280;74944;52.322;16.918;2024-03-25T05:18:20;99258.34;;;5.90;100.00
84724;BME280;74944;52.322;16.918;2024-03-25T05:20:46;99263.47;;;5.92;100.00
84724;BME280;74944;52.322;16.918;2024-03-25T05:23:12;99267.84;;;5.93;100.00
84724;BME280;74944;52.322;16.918;2024-03-25T05:25:37;99270.28;;;5.94;100.00
84724;BME280;74944;52.322;16.918;2024-03-25T05:28:04;99277.03;;;5.97;100.00
84724;BME280;74944;52.322;16.918;2024-03-25T05:30:30;99270.47;;;5.98;100.00
84724;BME280;74944;52.322;16.918;2024-03-25T05:32:55;99271.25;;;5.98;100.00
84724;BME280;74944;52.322;16.918;2024-03-25T05:35:21;99276.41;;;6.00;100.00
84724;BME280;74944;52.322;16.918;2024-03-25T05:37:47;99276.91;;;6.02;100.00
84724;BME280;74944;52.322;16.918;2024-03-25T05:40:13;99279.66;;;6.02;100.00
84724;BME280;74944;52.322;16.918;2024-03-25T05:42:41;99287.81;;;6.02;100.00
84724;BME280;74944;52.322;16.918;2024-03-25T05:45:09;99285.59;;;6.03;100.00
84724;BME280;74944;52.322;16.918;2024-03-25T05:47:35;99287.25;;;6.04;100.00
84724;BME280;74944;52.322;16.918;2024-03-25T05:50:01;99288.84;;;6.05;100.00
84724;BME280;74944;52.322;16.918;2024-03-25T05:52:31;99287.44;;;6.08;100.00
84724;BME280;74944;52.322;16.918;2024-03-25T05:54:56;99297.22;;;6.09;100.00
84724;BME280;74944;52.322;16.918;2024-03-25T05:57:22;99298.84;;;6.10;100.00
84724;BME280;74944;52.322;16.918;2024-03-25T05:59:48;99302.38;;;6.10;100.00
84724;BME280;74944;52.322;16.918;2024-03-25T06:02:14;99308.53;;;6.16;100.00
84724;BME280;74944;52.322;16.918;2024-03-25T06:04:40;99301.88;;;6.22;100.00
84724;BME280;74944;52.322;16.918;2024-03-25T06:07:05;99308.06;;;6.27;100.00
84724;BME280;74944;52.322;16.918;2024-03-25T06:09:31;99311.00;;;6.31;99.88
84724;BME280;74944;52.322;16.918;2024-03-25T06:11:57;99322.09;;;6.34;100.00
84724;BME280;74944;52.322;16.918;2024-03-25T06:14:22;99317.75;;;6.33;100.00
84724;BME280;74944;52.322;16.918;2024-03-25T06:16:49;99323.41;;;6.37;100.00
84724;BME280;74944;52.322;16.918;2024-03-25T06:19:15;99319.47;;;6.42;100.00
84724;BME280;74944;52.322;16.918;2024-03-25T06:21:43;99326.25;;;6.45;98.97
84724;BME280;74944;52.322;16.918;2024-03-25T06:24:08;99327.75;;;6.51;99.82
84724;BME280;74944;52.322;16.918;2024-03-25T06:26:34;99331.47;;;6.55;99.25
84724;BME280;74944;52.322;16.918;2024-03-25T06:29:00;99335.66;;;6.66;98.57
84724;BME280;74944;52.322;16.918;2024-03-25T06:31:26;99331.50;;;6.68;98.83
84724;BME280;74944;52.322;16.918;2024-03-25T06:34:10;99335.53;;;6.71;97.98
84724;BME280;74944;52.322;16.918;2024-03-25T06:36:48;99338.97;;;6.76;98.50
84724;BME280;74944;52.322;16.918;2024-03-25T06:39:14;99338.06;;;6.80;98.12
84724;BME280;74944;52.322;16.918;2024-03-25T06:41:40;99338.16;;;6.89;97.72
84724;BME280;74944;52.322;16.918;2024-03-25T06:44:06;99339.78;;;6.90;97.08
84724;BME280;74944;52.322;16.918;2024-03-25T06:46:32;99338.34;;;6.92;97.67
84724;BME280;74944;52.322;16.918;2024-03-25T06:48:58;99354.09;;;6.95;97.24
84724;BME280;74944;52.322;16.918;2024-03-25T06:51:24;99353.59;;;6.93;97.53
84724;BME280;74944;52.322;16.918;2024-03-25T06:53:50;99352.88;;;7.01;97.01
84724;BME280;74944;52.322;16.918;2024-03-25T06:56:16;99359.66;;;7.04;97.62
84724;BME280;74944;52.322;16.918;2024-03-25T06:58:42;99363.59;;;7.11;98.31
84724;BME280;74944;52.322;16.918;2024-03-25T07:01:10;99368.63;;;7.17;96.40
84724;BME280;74944;52.322;16.918;2024-03-25T07:03:39;99362.19;;;7.13;97.07
84724;BME280;74944;52.322;16.918;2024-03-25T07:06:06;99378.75;;;7.17;96.87
84724;BME280;74944;52.322;16.918;2024-03-25T07:08:32;99386.25;;;7.11;96.92
84724;BME280;74944;52.322;16.918;2024-03-25T07:10:59;99385.34;;;7.16;96.94
84724;BME280;74944;52.322;16.918;2024-03-25T07:13:24;99382.91;;;7.14;97.01
84724;BME280;74944;52.322;16.918;2024-03-25T07:15:51;99385.59;;;7.28;96.76
84724;BME280;74944;52.322;16.918;2024-03-25T07:18:18;99391.06;;;7.28;96.19
84724;BME280;74944;52.322;16.918;2024-03-25T07:20:44;99392.19;;;7.27;96.03
84724;BME280;74944;52.322;16.918;2024-03-25T07:23:10;99389.56;;;7.35;96.55
84724;BME280;74944;52.322;16.918;2024-03-25T07:25:36;99394.50;;;7.46;95.96
84724;BME280;74944;52.322;16.918;2024-03-25T07:28:03;99399.75;;;7.56;94.30
84724;BME280;74944;52.322;16.918;2024-03-25T07:30:29;99410.53;;;7.61;95.18
84724;BME280;74944;52.322;16.918;2024-03-25T07:32:55;99397.81;;;7.57;94.67
84724;BME280;74944;52.322;16.918;2024-03-25T07:35:23;99407.81;;;7.61;94.23
84724;BME280;74944;52.322;16.918;2024-03-25T07:37:49;99409.09;;;7.64;94.77
84724;BME280;74944;52.322;16.918;2024-03-25T07:40:20;99418.50;;;7.71;95.06
84724;BME280;74944;52.322;16.918;2024-03-25T07:42:46;99414.03;;;7.75;94.23
84724;BME280;74944;52.322;16.918;2024-03-25T07:45:13;99418.75;;;7.61;94.53
84724;BME280;74944;52.322;16.918;2024-03-25T07:47:39;99417.31;;;7.64;94.21
84724;BME280;74944;52.322;16.918;2024-03-25T07:50:07;99427.63;;;7.67;93.57
84724;BME280;74944;52.322;16.918;2024-03-25T07:52:33;99430.88;;;7.69;94.00
84724;BME280;74944;52.322;16.918;2024-03-25T07:55:02;99431.69;;;7.69;93.57
84724;BME280;74944;52.322;16.918;2024-03-25T07:57:27;99438.75;;;7.70;93.22
84724;BME280;74944;52.322;16.918;2024-03-25T07:59:53;99433.59;;;7.69;93.36
84724;BME280;74944;52.322;16.918;2024-03-25T08:02:19;99444.75;;;7.59;92.85
84724;BME280;74944;52.322;16.918;2024-03-25T08:04:45;99451.94;;;7.55;93.50
84724;BME280;74944;52.322;16.918;2024-03-25T08:07:10;99452.56;;;7.39;94.23
84724;BME280;74944;52.322;16.918;2024-03-25T08:09:36;99449.63;;;7.35;95.16
84724;BME280;74944;52.322;16.918;2024-03-25T08:12:02;99460.16;;;7.42;94.21
84724;BME280;74944;52.322;16.918;2024-03-25T08:14:27;99463.19;;;7.40;94.82
84724;BME280;74944;52.322;16.918;2024-03-25T08:16:53;99469.47;;;7.41;94.52
84724;BME280;74944;52.322;16.918;2024-03-25T08:19:19;99459.03;;;7.29;94.91
84724;BME280;74944;52.322;16.918;2024-03-25T08:21:44;99469.88;;;7.21;96.00
84724;BME280;74944;52.322;16.918;2024-03-25T08:24:10;99467.66;;;7.23;95.97
84724;BME280;74944;52.322;16.918;2024-03-25T08:26:36;99467.16;;;7.21;96.13
84724;BME280;74944;52.322;16.918;2024-03-25T08:29:02;99471.47;;;7.22;96.22
84724;BME280;74944;52.322;16.918;2024-03-25T08:31:29;99483.25;;;7.22;96.12
84724;BME280;74944;52.322;16.918;2024-03-25T08:33:55;99488.50;;;7.19;96.54
84724;BME280;74944;52.322;16.918;2024-03-25T08:36:20;99490.59;;;7.22;95.68
84724;BME280;74944;52.322;16.918;2024-03-25T08:38:46;99486.97;;;7.26;96.62
84724;BME280;74944;52.322;16.918;2024-03-25T08:41:11;99499.13;;;7.20;94.14
84724;BME280;74944;52.322;16.918;2024-03-25T08:43:37;99499.31;;;7.37;93.59
84724;BME280;74944;52.322;16.918;2024-03-25T08:46:03;99498.09;;;7.30;95.28
84724;BME280;74944;52.322;16.918;2024-03-25T08:48:29;99500.22;;;7.33;95.98
84724;BME280;74944;52.322;16.918;2024-03-25T08:50:55;99495.47;;;7.38;95.32
84724;BME280;74944;52.322;16.918;2024-03-25T08:53:21;99501.25;;;7.37;93.71
84724;BME280;74944;52.322;16.918;2024-03-25T08:55:48;99498.59;;;7.32;94.96
84724;BME280;74944;52.322;16.918;2024-03-25T08:58:14;99497.91;;;7.26;94.70
84724;BME280;74944;52.322;16.918;2024-03-25T09:00:42;99504.56;;;7.34;94.90
84724;BME280;74944;52.322;16.918;2024-03-25T09:03:08;99500.31;;;7.41;94.56
84724;BME280;74944;52.322;16.918;2024-03-25T09:05:36;99497.78;;;7.58;94.41
84724;BME280;74944;52.322;16.918;2024-03-25T09:08:07;99509.22;;;7.73;94.85
84724;BME280;74944;52.322;16.918;2024-03-25T09:10:37;99504.59;;;7.95;94.39
84724;BME280;74944;52.322;16.918;2024-03-25T09:13:22;99506.47;;;8.08;93.14
84724;BME280;74944;52.322;16.918;2024-03-25T09:15:49;99510.28;;;8.34;93.48
84724;BME280;74944;52.322;16.918;2024-03-25T09:18:15;99513.34;;;8.54;92.27
84724;BME280;74944;52.322;16.918;2024-03-25T09:20:40;99512.53;;;8.32;89.20
84724;BME280;74944;52.322;16.918;2024-03-25T09:23:06;99522.03;;;8.34;88.71
84724;BME280;74944;52.322;16.918;2024-03-25T09:25:33;99524.56;;;8.31;88.52
84724;BME280;74944;52.322;16.918;2024-03-25T09:27:58;99537.31;;;8.14;89.33
84724;BME280;74944;52.322;16.918;2024-03-25T09:30:24;99528.66;;;8.20;89.66
84724;BME280;74944;52.322;16.918;2024-03-25T09:32:50;99538.50;;;8.08;90.75
84724;BME280;74944;52.322;16.918;2024-03-25T09:35:15;99533.13;;;8.03;89.41
84724;BME280;74944;52.322;16.918;2024-03-25T09:37:41;99549.28;;;7.91;90.25
84724;BME280;74944;52.322;16.918;2024-03-25T09:40:08;99551.25;;;7.99;90.36
84724;BME280;74944;52.322;16.918;2024-03-25T09:42:49;99546.09;;;8.11;90.14
84724;BME280;74944;52.322;16.918;2024-03-25T09:45:18;99553.09;;;8.16;89.05
84724;BME280;74944;52.322;16.918;2024-03-25T09:47:47;99548.03;;;8.10;87.84
84724;BME280;74944;52.322;16.918;2024-03-25T09:50:14;99550.66;;;8.02;89.85
84724;BME280;74944;52.322;16.918;2024-03-25T09:52:48;99550.47;;;8.12;88.15
84724;BME280;74944;52.322;16.918;2024-03-25T09:55:14;99553.66;;;8.27;88.47
84724;BME280;74944;52.322;16.918;2024-03-25T09:57:42;99561.78;;;8.18;86.71
84724;BME280;74944;52.322;16.918;2024-03-25T10:00:08;99563.03;;;8.13;87.39
84724;BME280;74944;52.322;16.918;2024-03-25T10:02:37;99567.16;;;8.23;88.20
84724;BME280;74944;52.322;16.918;2024-03-25T10:05:05;99569.16;;;8.31;88.14
84724;BME280;74944;52.322;16.918;2024-03-25T10:07:31;99567.91;;;8.37;86.14
84724;BME280;74944;52.322;16.918;2024-03-25T10:09:56;99566.75;;;8.51;87.24
84724;BME280;74944;52.322;16.918;2024-03-25T10:12:24;99566.06;;;8.68;85.97
84724;BME280;74944;52.322;16.918;2024-03-25T10:14:50;99563.00;;;8.83;85.21
84724;BME280;74944;52.322;16.918;2024-03-25T10:17:16;99572.25;;;8.95;85.20
84724;BME280;74944;52.322;16.918;2024-03-25T10:19:43;99564.28;;;9.07;83.48
84724;BME280;74944;52.322;16.918;2024-03-25T10:22:09;99565.56;;;9.31;83.27
84724;BME280;74944;52.322;16.918;2024-03-25T10:24:45;99574.88;;;9.30;82.99
84724;BME280;74944;52.322;16.918;2024-03-25T10:27:18;99571.69;;;9.36;82.11
84724;BME280;74944;52.322;16.918;2024-03-25T10:29:46;99569.97;;;9.49;85.29
84724;BME280;74944;52.322;16.918;2024-03-25T10:32:13;99567.16;;;9.32;81.57
84724;BME280;74944;52.322;16.918;2024-03-25T10:34:39;99567.06;;;9.15;78.94
84724;BME280;74944;52.322;16.918;2024-03-25T10:37:08;99570.53;;;9.29;79.39
84724;BME280;74944;52.322;16.918;2024-03-25T10:39:39;99572.03;;;9.35;77.86
84724;BME280;74944;52.322;16.918;2024-03-25T10:42:05;99571.13;;;9.56;80.20
84724;BME280;74944;52.322;16.918;2024-03-25T10:44:33;99565.56;;;9.69;80.17
84724;BME280;74944;52.322;16.918;2024-03-25T10:47:02;99558.97;;;9.87;77.00
84724;BME280;74944;52.322;16.918;2024-03-25T10:49:38;99569.16;;;9.87;76.08
84724;BME280;74944;52.322;16.918;2024-03-25T10:52:07;99566.16;;;9.96;74.13
84724;BME280;74944;52.322;16.918;2024-03-25T10:54:34;99569.59;;;10.27;73.30
84724;BME280;74944;52.322;16.918;2024-03-25T10:57:03;99558.16;;;10.50;71.73
84724;BME280;74944;52.322;16.918;2024-03-25T10:59:30;99561.06;;;10.70;74.40
84724;BME280;74944;52.322;16.918;2024-03-25T11:01:56;99558.31;;;10.87;70.61
84724;BME280;74944;52.322;16.918;2024-03-25T11:04:23;99554.88;;;11.15;70.92
84724;BME280;74944;52.322;16.918;2024-03-25T11:06:49;99562.13;;;11.20;69.14
84724;BME280;74944;52.322;16.918;2024-03-25T11:09:22;99582.41;;;10.57;71.05
84724;BME280;74944;52.322;16.918;2024-03-25T11:11:52;99592.22;;;10.24;73.03
84724;BME280;74944;52.322;16.918;2024-03-25T11:14:18;99597.97;;;9.67;74.16
84724;BME280;74944;52.322;16.918;2024-03-25T11:16:52;99600.78;;;9.24;75.96
84724;BME280;74944;52.322;16.918;2024-03-25T11:19:18;99605.22;;;8.90;76.48
84724;BME280;74944;52.322;16.918;2024-03-25T11:21:45;99607.53;;;8.75;76.62
84724;BME280;74944;52.322;16.918;2024-03-25T11:24:10;99621.81;;;8.50;77.22
84724;BME280;74944;52.322;16.918;2024-03-25T11:26:41;99616.06;;;8.38;78.30
84724;BME280;74944;52.322;16.918;2024-03-25T11:29:06;99615.84;;;8.48;79.52
84724;BME280;74944;52.322;16.918;2024-03-25T11:31:33;99617.66;;;8.39;82.73
84724;BME280;74944;52.322;16.918;2024-03-25T11:34:05;99619.50;;;8.44;81.29
84724;BME280;74944;52.322;16.918;2024-03-25T11:36:33;99609.81;;;8.59;81.90
84724;BME280;74944;52.322;16.918;2024-03-25T11:39:01;99614.06;;;8.87;80.14
84724;BME280;74944;52.322;16.918;2024-03-25T11:41:43;99612.16;;;9.09;80.21
84724;BME280;74944;52.322;16.918;2024-03-25T11:44:11;99615.38;;;9.33;79.16
84724;BME280;74944;52.322;16.918;2024-03-25T11:46:41;99613.06;;;9.57;78.57
84724;BME280;74944;52.322;16.918;2024-03-25T11:49:07;99613.47;;;9.72;78.17
84724;BME280;74944;52.322;16.918;2024-03-25T11:51:35;99605.66;;;9.95;76.22
84724;BME280;74944;52.322;16.918;2024-03-25T11:54:04;99614.97;;;10.16;76.73
84724;BME280;74944;52.322;16.918;2024-03-25T11:56:31;99609.81;;;10.40;73.10
84724;BME280;74944;52.322;16.918;2024-03-25T11:58:58;99607.25;;;10.60;74.95
84724;BME280;74944;52.322;16.918;2024-03-25T12:01:24;99593.69;;;10.72;73.12
84724;BME280;74944;52.322;16.918;2024-03-25T12:03:51;99602.56;;;10.52;73.96
84724;BME280;74944;52.322;16.918;2024-03-25T12:06:19;99596.94;;;10.40;74.02
84724;BME280;74944;52.322;16.918;2024-03-25T12:08:44;99609.34;;;10.46;74.74
84724;BME280;74944;52.322;16.918;2024-03-25T12:11:30;99604.00;;;10.25;76.33
84724;BME280;74944;52.322;16.918;2024-03-25T12:13:57;99600.31;;;10.46;75.00
84724;BME280;74944;52.322;16.918;2024-03-25T12:16:23;99607.88;;;10.32;75.76
84724;BME280;74944;52.322;16.918;2024-03-25T12:18:49;99603.22;;;10.41;75.01
84724;BME280;74944;52.322;16.918;2024-03-25T12:21:15;99604.19;;;10.45;75.42
84724;BME280;74944;52.322;16.918;2024-03-25T12:23:42;99613.81;;;10.26;76.19
84724;BME280;74944;52.322;16.918;2024-03-25T12:26:09;99610.59;;;10.32;76.15
84724;BME280;74944;52.322;16.918;2024-03-25T12:28:34;99613.63;;;10.05;78.21
84724;BME280;74944;52.322;16.918;2024-03-25T12:31:07;99616.94;;;9.86;76.41
84724;BME280;74944;52.322;16.918;2024-03-25T12:33:46;99626.53;;;9.45;74.97
84724;BME280;74944;52.322;16.918;2024-03-25T12:36:12;99648.81;;;9.22;71.75
84724;BME280;74944;52.322;16.918;2024-03-25T12:38:37;99632.44;;;9.08;76.13
84724;BME280;74944;52.322;16.918;2024-03-25T12:41:05;99634.06;;;9.09;76.43
84724;BME280;74944;52.322;16.918;2024-03-25T12:43:32;99638.34;;;9.02;78.04
84724;BME280;74944;52.322;16.918;2024-03-25T12:45:58;99640.59;;;9.00;78.90
84724;BME280;74944;52.322;16.918;2024-03-25T12:48:25;99633.19;;;9.00;80.44
84724;BME280;74944;52.322;16.918;2024-03-25T12:50:52;99633.81;;;9.19;80.56
84724;BME280;74944;52.322;16.918;2024-03-25T12:53:19;99635.41;;;9.42;79.84
84724;BME280;74944;52.322;16.918;2024-03-25T12:55:49;99632.47;;;9.68;80.86